Time;durP1;ratioP1;P1;durP2;ratioP2;P2;SDS_P1;SDS_P2;PMS_P1;PMS_P2;Temp;Humidity;BMP_temperature;BMP_pressure;BME280_temperature;BME280_humidity;BME280_pressure;Samples;Min_cycle;Max_cycle;Signal;HPM_P1;HPM_P2
2021/10/25 00:01:29;;;;;;;;;;;;;;;4.52;100.00;101875.28;4895642;29;19928;-53
2021/10/25 00:03:56;;;;;;;;;;;;;;;4.43;100.00;101870.28;4895925;29;19927;-51
2021/10/25 00:06:23;;;;;;;;;;;;;;;4.48;100.00;101871.88;4896558;29;19983;-50
2021/10/25 00:08:49;;;;;;;;;;;;;;;4.44;100.00;101870.22;4895360;29;19956;-53
2021/10/25 00:11:16;;;;;;;;;;;;;;;4.43;100.00;101871.16;4896766;29;19939;-54
2021/10/25 00:13:43;;;;;;;;;;;;;;;4.36;100.00;101870.44;4881949;29;19928;-54
2021/10/25 00:16:09;;;;;;;;;;;;;;;4.36;100.00;101869.56;4895218;29;19927;-54
2021/10/25 00:18:36;;;;;;;;;;;;;;;4.36;100.00;101869.56;4896997;29;19961;-49
2021/10/25 00:21:03;;;;;;;;;;;;;;;4.35;100.00;101870.44;4896957;29;20439;-53
2021/10/25 00:23:29;;;;;;;;;;;;;;;4.35;100.00;101870.44;4897474;29;19963;-53
2021/10/25 00:25:57;;;;;;;;;;;;;;;4.32;100.00;101866.19;4897198;29;19939;-52
2021/10/25 00:28:23;;;;;;;;;;;;;;;4.28;100.00;101867.16;4895312;29;19931;-51
2021/10/25 00:30:50;;;;;;;;;;;;;;;4.27;100.00;101862.81;4882007;29;19934;-50
2021/10/25 00:33:17;;;;;;;;;;;;;;;4.22;100.00;101862.91;4896258;29;19928;-43
2021/10/25 00:35:44;;;;;;;;;;;;;;;4.24;100.00;101860.28;4896784;29;20311;-44
2021/10/25 00:38:10;;;;;;;;;;;;;;;4.23;100.00;101853.34;4898220;29;19927;-49
2021/10/25 00:40:37;;;;;;;;;;;;;;;4.18;100.00;101863.84;4897096;29;19950;-51
2021/10/25 00:43:04;;;;;;;;;;;;;;;4.16;100.00;101856.97;4896091;29;20438;-50
2021/10/25 00:45:31;;;;;;;;;;;;;;;4.20;100.00;101859.50;4894552;29;19939;-51
2021/10/25 00:47:57;;;;;;;;;;;;;;;4.12;100.00;101857.94;4895925;29;19956;-52
2021/10/25 00:50:24;;;;;;;;;;;;;;;4.07;100.00;101864.09;4882231;29;19979;-51
2021/10/25 00:52:51;;;;;;;;;;;;;;;4.05;100.00;101862.44;4896973;29;19931;-43
2021/10/25 00:55:18;;;;;;;;;;;;;;;4.04;100.00;101869.38;4895706;29;19965;-44
2021/10/25 00:57:45;;;;;;;;;;;;;;;4.06;100.00;101865.00;4894858;29;20446;-43
2021/10/25 01:00:11;;;;;;;;;;;;;;;4.03;100.00;101864.19;4895052;29;20657;-51
2021/10/25 01:02:39;;;;;;;;;;;;;;;4.02;100.00;101855.53;4896739;29;20379;-52
2021/10/25 01:05:06;;;;;;;;;;;;;;;4.05;100.00;101868.50;4894993;29;20430;-50
2021/10/25 01:07:33;;;;;;;;;;;;;;;3.97;100.00;101870.41;4880907;29;19950;-43
2021/10/25 01:10:01;;;;;;;;;;;;;;;3.93;100.00;101868.75;4897381;29;19931;-44
2021/10/25 01:12:28;;;;;;;;;;;;;;;3.95;100.00;101861.75;4897426;29;19983;-43
2021/10/25 01:14:55;;;;;;;;;;;;;;;3.91;100.00;101860.09;4896833;29;19927;-43
2021/10/25 01:17:21;;;;;;;;;;;;;;;3.88;100.00;101861.03;4898510;29;20324;-42
2021/10/25 01:19:54;;;;;;;;;;;;;;;3.90;100.00;101858.41;4881543;29;19928;-51
2021/10/25 01:22:22;;;;;;;;;;;;;;;3.89;100.00;101859.28;4895257;29;20387;-49
2021/10/25 01:24:52;;;;;;;;;;;;;;;3.84;100.00;101851.56;4895625;29;19931;-48
2021/10/25 01:27:19;;;;;;;;;;;;;;;3.83;100.00;101849.88;4896925;29;19938;-49
2021/10/25 01:29:46;;;;;;;;;;;;;;;3.84;100.00;101848.97;4896880;29;20026;-49
2021/10/25 01:32:13;;;;;;;;;;;;;;;3.84;100.00;101841.16;4898326;29;20050;-51
2021/10/25 01:34:40;;;;;;;;;;;;;;;3.81;100.00;101836.03;4881791;29;19928;-50
2021/10/25 01:37:08;;;;;;;;;;;;;;;3.83;100.00;101836.88;4898040;29;19985;-53
2021/10/25 01:39:35;;;;;;;;;;;;;;;3.83;100.00;101825.56;4897463;29;19962;-51
2021/10/25 01:42:02;;;;;;;;;;;;;;;3.81;100.00;101840.38;4895213;29;20448;-51
2021/10/25 01:44:29;;;;;;;;;;;;;;;3.76;100.00;101827.44;4895037;29;19936;-52
2021/10/25 01:46:55;;;;;;;;;;;;;;;3.80;100.00;101836.91;4879141;29;20462;-53
2021/10/25 01:49:22;;;;;;;;;;;;;;;3.75;100.00;101830.97;4898051;29;19935;-52
2021/10/25 01:51:49;;;;;;;;;;;;;;;3.78;100.00;101824.84;4896689;29;20328;-51
2021/10/25 01:54:16;;;;;;;;;;;;;;;3.77;100.00;101826.56;4894755;29;19957;-53
2021/10/25 01:56:43;;;;;;;;;;;;;;;3.75;100.00;101822.28;4894674;29;20323;-52
2021/10/25 01:59:10;;;;;;;;;;;;;;;3.71;100.00;101834.53;4877754;29;19966;-53
2021/10/25 02:01:36;;;;;;;;;;;;;;;3.76;100.00;101827.44;4877058;29;20014;-54
2021/10/25 02:04:04;;;;;;;;;;;;;;;3.75;100.00;101830.97;4878527;29;20387;-55
2021/10/25 02:06:31;;;;;;;;;;;;;;;3.72;100.00;101837.09;4896208;29;20473;-53
2021/10/25 02:08:58;;;;;;;;;;;;;;;3.73;100.00;101837.94;4892973;29;20415;-51
2021/10/25 02:11:25;;;;;;;;;;;;;;;3.72;100.00;101844.88;4894680;29;19928;-51
2021/10/25 02:13:52;;;;;;;;;;;;;;;3.83;100.00;101828.19;4877722;29;19927;-51
2021/10/25 02:16:19;;;;;;;;;;;;;;;3.79;100.00;101830.00;4876842;29;20149;-49
2021/10/25 02:18:46;;;;;;;;;;;;;;;3.78;100.00;101830.88;4895244;29;19934;-50
2021/10/25 02:21:13;;;;;;;;;;;;;;;3.82;100.00;101823.88;4894661;29;19931;-52
2021/10/25 02:23:39;;;;;;;;;;;;;;;3.84;100.00;101822.09;4895514;29;19931;-49
2021/10/25 02:26:06;;;;;;;;;;;;;;;3.87;100.00;101822.03;4896638;29;19935;-52
2021/10/25 02:28:33;;;;;;;;;;;;;;;3.91;100.00;101822.81;4896682;29;20415;-50
2021/10/25 02:30:59;;;;;;;;;;;;;;;3.96;100.00;101824.44;4900289;29;20291;-52
2021/10/25 02:33:26;;;;;;;;;;;;;;;4.00;100.00;101823.47;4901209;29;19934;-45
2021/10/25 02:35:53;;;;;;;;;;;;;;;4.04;100.00;101819.91;4882625;29;20471;-43
2021/10/25 02:38:19;;;;;;;;;;;;;;;4.09;100.00;101812.00;4898135;29;19935;-44
2021/10/25 02:40:47;;;;;;;;;;;;;;;4.14;100.00;101817.94;4899412;29;20348;-45
2021/10/25 02:43:13;;;;;;;;;;;;;;;4.19;100.00;101803.09;4898765;29;19931;-50
2021/10/25 02:45:40;;;;;;;;;;;;;;;4.29;100.00;101803.72;4898175;29;20672;-50
2021/10/25 02:48:08;;;;;;;;;;;;;;;4.32;100.00;101803.66;4898263;29;19932;-49
2021/10/25 02:50:34;;;;;;;;;;;;;;;4.36;100.00;101797.50;4898508;29;20440;-51
2021/10/25 02:53:01;;;;;;;;;;;;;;;4.42;100.00;101796.50;4898895;29;19931;-49
2021/10/25 02:55:29;;;;;;;;;;;;;;;4.47;100.00;101794.63;4898032;29;20462;-52
2021/10/25 02:57:56;;;;;;;;;;;;;;;4.60;100.00;101804.75;4881181;29;19935;-52
2021/10/25 03:00:22;;;;;;;;;;;;;;;4.72;100.00;101794.03;4896647;29;19975;-44
2021/10/25 03:02:49;;;;;;;;;;;;;;;4.73;100.00;101800.91;4898745;29;20302;-43
2021/10/25 03:05:16;;;;;;;;;;;;;;;4.78;100.00;101798.22;4898166;29;19927;-43
2021/10/25 03:07:43;;;;;;;;;;;;;;;4.84;100.00;101796.31;4882717;29;20022;-44
2021/10/25 03:10:09;;;;;;;;;;;;;;;4.90;100.00;101800.50;4899221;29;19931;-51
2021/10/25 03:12:36;;;;;;;;;;;;;;;4.96;100.00;101791.66;4897974;29;19934;-50
2021/10/25 03:15:06;;;;;;;;;;;;;;;4.99;100.00;101797.66;4880166;29;19928;-51
2021/10/25 03:17:33;;;;;;;;;;;;;;;5.04;100.00;101794.91;4897630;29;19935;-53
2021/10/25 03:20:02;;;;;;;;;;;;;;;5.09;100.00;101790.44;4881326;29;19928;-51
2021/10/25 03:22:29;;;;;;;;;;;;;;;5.13;100.00;101792.06;4898322;29;20034;-50
2021/10/25 03:24:56;;;;;;;;;;;;;;;5.18;100.00;101787.59;4897654;29;19979;-50
2021/10/25 03:27:24;;;;;;;;;;;;;;;5.21;100.00;101782.28;4898498;29;19927;-50
2021/10/25 03:29:51;;;;;;;;;;;;;;;5.28;100.00;101782.13;4900333;29;20550;-52
2021/10/25 03:32:18;;;;;;;;;;;;;;;5.32;100.00;101781.13;4900149;29;19928;-50
2021/10/25 03:34:45;;;;;;;;;;;;;;;5.36;100.00;101781.00;4899167;29;19956;-51
2021/10/25 03:37:11;;;;;;;;;;;;;;;5.39;100.00;101777.44;4898642;29;19979;-51
2021/10/25 03:39:40;;;;;;;;;;;;;;;5.45;100.00;101771.19;4897805;29;19931;-54
2021/10/25 03:42:14;;;;;;;;;;;;;;;5.54;100.00;101766.56;4896800;29;20003;-49
2021/10/25 03:44:48;;;;;;;;;;;;;;;5.59;100.00;101767.28;4900323;29;20291;-53
2021/10/25 03:47:20;;;;;;;;;;;;;;;5.66;100.00;101759.25;4882276;29;20291;-53
2021/10/25 03:49:55;;;;;;;;;;;;;;;5.71;100.00;101760.84;4897585;29;19943;-54
2021/10/25 03:54:57;;;;;;;;;;;;;;;5.75;100.00;101769.44;4899340;29;19928;-43
2021/10/25 03:57:42;;;;;;;;;;;;;;;5.78;100.00;101766.75;4882923;29;19979;-50
2021/10/25 04:03:05;;;;;;;;;;;;;;;5.80;100.00;101769.31;4899926;29;19931;-49
2021/10/25 04:27:49;;;;;;;;;;;;;;;6.12;100.00;101778.75;4897099;29;19935;-50
2021/10/25 04:30:17;;;;;;;;;;;;;;;6.16;100.00;101775.19;4878589;29;19931;-45
2021/10/25 04:32:44;;;;;;;;;;;;;;;6.19;100.00;101772.47;4899317;29;19927;-53
2021/10/25 04:35:12;;;;;;;;;;;;;;;6.21;100.00;101772.41;4899368;29;20303;-51
2021/10/25 04:37:38;;;;;;;;;;;;;;;6.37;100.00;101760.56;4882662;29;20447;-50
2021/10/25 04:40:05;;;;;;;;;;;;;;;6.35;100.00;101761.50;4897359;29;19927;-51
2021/10/25 04:42:33;;;;;;;;;;;;;;;6.33;100.00;101758.09;4879216;29;19935;-50
2021/10/25 04:44:59;;;;;;;;;;;;;;;6.36;100.00;101761.44;4895002;29;19973;-50
2021/10/25 04:47:26;;;;;;;;;;;;;;;6.38;100.00;101764.00;4896784;29;19963;-45
2021/10/25 04:49:53;;;;;;;;;;;;;;;6.39;100.00;101768.34;4897161;29;19935;-53
2021/10/25 04:52:19;;;;;;;;;;;;;;;6.42;100.00;101763.00;4898806;29;19936;-52
2021/10/25 04:54:46;;;;;;;;;;;;;;;6.46;100.00;101763.78;4896453;29;19931;-51
2021/10/25 04:57:13;;;;;;;;;;;;;;;6.46;100.00;101766.38;4895323;29;19954;-44
2021/10/25 04:59:39;;;;;;;;;;;;;;;6.54;100.00;101759.97;4898962;29;19932;-45
2021/10/25 05:02:06;;;;;;;;;;;;;;;6.55;100.00;101758.25;4898834;29;19927;-53
2021/10/25 05:04:33;;;;;;;;;;;;;;;6.58;100.00;101752.91;4897554;29;19931;-49
2021/10/25 05:06:59;;;;;;;;;;;;;;;6.58;100.00;101752.91;4895897;29;19943;-52
2021/10/25 05:09:29;;;;;;;;;;;;;;;6.55;100.00;101748.63;4895727;29;19995;-46
2021/10/25 05:11:57;;;;;;;;;;;;;;;6.60;100.00;101744.09;4895589;29;20015;-44
2021/10/25 05:14:23;;;;;;;;;;;;;;;6.69;100.00;101745.53;4894272;29;19999;-45
2021/10/25 05:16:50;;;;;;;;;;;;;;;6.67;100.00;101734.28;4895911;29;19987;-47
2021/10/25 05:19:16;;;;;;;;;;;;;;;6.66;100.00;101740.44;4896741;29;20506;-44
2021/10/25 05:21:43;;;;;;;;;;;;;;;6.68;100.00;101742.97;4895883;29;20319;-44
2021/10/25 05:24:10;;;;;;;;;;;;;;;6.69;100.00;101745.53;4895882;29;20073;-43
2021/10/25 05:26:36;;;;;;;;;;;;;;;6.71;100.00;101740.28;4897909;29;19934;-45
2021/10/25 05:29:03;;;;;;;;;;;;;;;6.71;100.00;101737.66;4897919;29;20343;-44
2021/10/25 05:31:30;;;;;;;;;;;;;;;6.73;100.00;101730.63;4894345;29;20026;-43
2021/10/25 05:33:56;;;;;;;;;;;;;;;6.74;100.00;101727.09;4880710;29;20324;-43
2021/10/25 05:36:23;;;;;;;;;;;;;;;6.77;100.00;101727.81;4898008;29;19927;-45
2021/10/25 05:38:51;;;;;;;;;;;;;;;6.79;100.00;101730.41;4898098;29;20334;-50
2021/10/25 05:41:18;;;;;;;;;;;;;;;6.77;100.00;101725.22;4878469;29;19927;-52
2021/10/25 05:43:45;;;;;;;;;;;;;;;6.82;100.00;101727.69;4895752;29;20454;-51
2021/10/25 05:46:11;;;;;;;;;;;;;;;6.84;100.00;101722.38;4896350;29;19931;-46
2021/10/25 05:48:40;;;;;;;;;;;;;;;6.86;100.00;101721.44;4878831;29;19931;-44
2021/10/25 05:51:07;;;;;;;;;;;;;;;6.89;100.00;101723.94;4895979;29;19931;-44
2021/10/25 05:53:34;;;;;;;;;;;;;;;6.92;100.00;101720.34;4894538;29;19928;-42
2021/10/25 05:56:01;;;;;;;;;;;;;;;6.99;100.00;101715.75;4895812;29;19975;-43
2021/10/25 05:58:28;;;;;;;;;;;;;;;6.96;100.00;101719.34;4897718;29;19976;-48
2021/10/25 06:00:57;;;;;;;;;;;;;;;7.02;100.00;101705.19;4879076;29;19983;-48
2021/10/25 06:03:26;;;;;;;;;;;;;;;7.05;100.00;101708.53;4878514;29;20018;-50
2021/10/25 06:05:53;;;;;;;;;;;;;;;7.10;100.00;101710.97;4878555;29;20482;-50
2021/10/25 06:08:20;;;;;;;;;;;;;;;7.14;100.00;101706.50;4878637;29;19936;-50
2021/10/25 06:10:47;;;;;;;;;;;;;;;7.14;100.00;101706.50;4897093;29;19927;-51
2021/10/25 06:13:28;;;;;;;;;;;;;;;7.14;100.00;101712.56;4893905;29;19936;-53
2021/10/25 06:16:03;;;;;;;;;;;;;;;7.16;100.00;101707.28;4896741;29;19931;-49
2021/10/25 06:18:30;;;;;;;;;;;;;;;7.19;100.00;101708.03;4897753;29;19931;-53
2021/10/25 06:20:56;;;;;;;;;;;;;;;7.23;100.00;101714.00;4897564;29;19928;-43
2021/10/25 06:23:23;;;;;;;;;;;;;;;7.24;100.00;101719.19;4897147;29;19927;-50
2021/10/25 06:25:53;;;;;;;;;;;;;;;7.26;100.00;101726.97;4895927;29;19932;-54
2021/10/25 06:28:20;;;;;;;;;;;;;;;7.26;100.00;101719.97;4893566;29;19939;-50
2021/10/25 06:30:54;;;;;;;;;;;;;;;7.34;100.00;101726.69;4893938;29;19928;-53
2021/10/25 06:33:22;;;;;;;;;;;;;;;7.32;100.00;101726.75;4897389;29;19935;-52
2021/10/25 06:36:01;;;;;;;;;;;;;;;7.35;100.00;101723.16;4897587;29;20442;-43
2021/10/25 06:38:31;;;;;;;;;;;;;;;7.40;100.00;101721.22;4897619;29;19927;-45
2021/10/25 06:40:59;;;;;;;;;;;;;;;7.40;100.00;101719.47;4897662;29;20359;-48
2021/10/25 06:43:26;;;;;;;;;;;;;;;7.42;100.00;101724.66;4880467;29;20395;-48
2021/10/25 06:45:54;;;;;;;;;;;;;;;7.44;100.00;101717.56;4896460;29;19928;-44
2021/10/25 06:48:22;;;;;;;;;;;;;;;7.51;100.00;101711.22;4897272;29;19935;-45
2021/10/25 06:50:49;;;;;;;;;;;;;;;7.58;100.00;101717.03;4896168;29;20413;-45
2021/10/25 06:53:17;;;;;;;;;;;;;;;7.57;100.00;101717.97;4893042;29;20010;-44
2021/10/25 06:55:44;;;;;;;;;;;;;;;7.59;100.00;101722.25;4894911;29;19983;-46
2021/10/25 06:58:11;;;;;;;;;;;;;;;7.66;100.00;101714.13;4893875;29;19931;-44
2021/10/25 07:00:38;;;;;;;;;;;;;;;7.68;100.00;101723.63;4897131;29;19935;-47
2021/10/25 07:03:05;;;;;;;;;;;;;;;7.70;100.00;101723.56;4897138;29;19987;-44
2021/10/25 07:05:34;;;;;;;;;;;;;;;7.72;100.00;101721.75;4897518;29;19995;-45
2021/10/25 07:08:01;;;;;;;;;;;;;;;7.73;100.00;101719.09;4895402;29;19931;-46
2021/10/25 07:10:28;;;;;;;;;;;;;;;7.79;100.00;101717.97;4894069;29;20305;-51
2021/10/25 07:13:14;;;;;;;;;;;;;;;7.79;100.00;101724.06;4900485;29;20456;-49
2021/10/25 07:15:48;;;;;;;;;;;;;;;7.86;100.00;101729.06;4883879;29;20369;-49
2021/10/25 08:10:06;;;;;;;;;;;;;;;8.56;100.00;101755.94;4897945;29;20004;-50
2021/10/25 08:12:35;;;;;;;;;;;;;;;8.58;100.00;101760.22;4899266;29;20276;-51
2021/10/25 08:15:06;;;;;;;;;;;;;;;8.63;100.00;101754.78;4895961;29;19959;-54
2021/10/25 08:17:45;;;;;;;;;;;;;;;8.63;100.00;101757.41;4896581;29;19931;-54
2021/10/25 08:20:11;;;;;;;;;;;;;;;8.69;100.00;101762.38;4899623;29;19932;-54
2021/10/25 08:22:40;;;;;;;;;;;;;;;8.70;100.00;101755.34;4898505;29;19931;-53
2021/10/25 08:25:08;;;;;;;;;;;;;;;8.73;100.00;101753.47;4896131;29;19970;-55
2021/10/25 08:27:36;;;;;;;;;;;;;;;8.75;100.00;101753.41;4894498;29;19932;-55
2021/10/25 08:30:04;;;;;;;;;;;;;;;8.80;100.00;101759.31;4895110;29;20417;-44
2021/10/25 08:35:15;;;;;;;;;;;;;;;8.84;100.00;101746.91;4899136;29;19934;-49
2021/10/25 08:40:31;;;;;;;;;;;;;;;8.97;100.00;101748.06;4881354;29;19927;-45
2021/10/25 08:42:58;;;;;;;;;;;;;;;8.99;99.71;101742.78;4894776;29;19931;-44
2021/10/25 08:45:29;;;;;;;;;;;;;;;9.01;99.47;101749.63;4894676;29;19992;-47
2021/10/25 08:47:57;;;;;;;;;;;;;;;9.03;99.39;101744.34;4896492;29;20340;-46
2021/10/25 08:50:25;;;;;;;;;;;;;;;9.03;99.08;101739.94;4898166;29;20289;-45
2021/10/25 08:52:52;;;;;;;;;;;;;;;9.07;99.14;101743.28;4882427;29;19938;-48
2021/10/25 08:55:18;;;;;;;;;;;;;;;9.13;98.19;101751.75;4898948;29;20447;-51
2021/10/25 08:57:47;;;;;;;;;;;;;;;9.15;98.22;101741.16;4897948;29;20383;-54
2021/10/25 09:00:17;;;;;;;;;;;;;;;9.22;97.59;101747.00;4894390;29;19947;-56
2021/10/25 09:02:49;;;;;;;;;;;;;;;9.17;97.83;101741.94;4896398;29;19939;-47
2021/10/25 09:05:17;;;;;;;;;;;;;;;9.26;96.81;101759.91;4894528;29;19927;-44
2021/10/25 09:07:50;;;;;;;;;;;;;;;9.31;97.37;101759.69;4899004;29;20431;-47
2021/10/25 09:10:27;;;;;;;;;;;;;;;9.27;97.02;101753.75;4897323;29;19954;-44
2021/10/25 09:12:59;;;;;;;;;;;;;;;9.27;97.26;101748.50;4898707;29;20417;-52
2021/10/25 09:15:26;;;;;;;;;;;;;;;9.32;97.50;101744.81;4898534;29;19956;-55
2021/10/25 09:17:53;;;;;;;;;;;;;;;9.33;97.71;101747.34;4898488;29;19935;-54
2021/10/25 09:20:20;;;;;;;;;;;;;;;9.36;98.20;101746.38;4896297;29;19931;-53
2021/10/25 09:22:47;;;;;;;;;;;;;;;9.40;97.88;101743.53;4879547;29;19928;-54
2021/10/25 09:25:13;;;;;;;;;;;;;;;9.38;98.58;101748.00;4895616;29;19979;-44
2021/10/25 09:27:43;;;;;;;;;;;;;;;9.47;98.52;101733.59;4895844;29;20391;-43
2021/10/25 09:30:14;;;;;;;;;;;;;;;9.44;97.06;101733.75;4896856;29;19950;-45
2021/10/25 09:32:42;;;;;;;;;;;;;;;9.46;97.75;101735.38;4896131;29;19931;-44
2021/10/25 09:35:17;;;;;;;;;;;;;;;9.45;97.64;101738.91;4894766;29;19931;-44
2021/10/25 09:37:50;;;;;;;;;;;;;;;9.47;97.01;101736.22;4897477;29;20284;-45
2021/10/25 09:40:23;;;;;;;;;;;;;;;9.43;96.89;101738.13;4881463;29;19931;-44
2021/10/25 09:43:01;;;;;;;;;;;;;;;9.53;97.33;101732.44;4881313;29;19934;-45
2021/10/25 09:51:12;;;;;;;;;;;;;;;9.68;97.74;101728.25;4885997;29;19966;-44
2021/10/25 09:53:59;;;;;;;;;;;;;;;9.81;97.39;101732.00;4892591;29;19928;-44
2021/10/25 09:56:34;;;;;;;;;;;;;;;9.84;96.73;101723.97;4894894;29;20406;-47
2021/10/25 09:59:27;;;;;;;;;;;;;;;9.91;96.53;101728.03;4894703;29;20411;-45
2021/10/25 10:01:54;;;;;;;;;;;;;;;9.87;96.52;101726.47;4896443;29;19932;-47
2021/10/25 10:04:21;;;;;;;;;;;;;;;9.93;96.17;101725.31;4897501;29;20467;-46
2021/10/25 10:06:48;;;;;;;;;;;;;;;9.94;96.10;101719.97;4897724;29;19927;-47
2021/10/25 10:09:15;;;;;;;;;;;;;;;10.07;95.95;101724.63;4895470;29;20399;-48
2021/10/25 10:11:42;;;;;;;;;;;;;;;10.04;95.93;101722.16;4878209;29;19928;-57
2021/10/25 10:14:09;;;;;;;;;;;;;;;10.12;95.15;101725.28;4895949;29;19928;-55
2021/10/25 10:16:36;;;;;;;;;;;;;;;10.10;95.22;101732.38;4897513;29;20384;-55
2021/10/25 10:19:05;;;;;;;;;;;;;;;10.15;95.58;101728.59;4896474;29;19927;-54
2021/10/25 10:21:32;;;;;;;;;;;;;;;10.14;96.40;101732.16;4876403;29;19943;-54
2021/10/25 10:24:06;;;;;;;;;;;;;;;10.24;95.31;101729.91;4877606;29;19928;-49
2021/10/25 10:26:33;;;;;;;;;;;;;;;10.25;95.52;101726.38;4875729;29;19950;-46
2021/10/25 10:29:07;;;;;;;;;;;;;;;10.30;94.65;101726.97;4874918;29;19928;-48
2021/10/25 10:31:35;;;;;;;;;;;;;;;10.27;96.67;101721.03;4883702;29;20327;-47
2021/10/25 10:34:09;;;;;;;;;;;;;;;10.36;95.61;101722.38;4877609;29;19971;-47
2021/10/25 10:36:36;;;;;;;;;;;;;;;10.38;96.40;101715.28;4883836;29;19942;-56
2021/10/25 10:39:13;;;;;;;;;;;;;;;10.39;95.79;101719.56;4880392;29;19928;-53
2021/10/25 10:41:43;;;;;;;;;;;;;;;10.43;95.23;101723.75;4871788;29;19984;-51
2021/10/25 10:44:11;;;;;;;;;;;;;;;10.54;94.79;101723.22;4867764;29;19928;-55
2021/10/25 10:46:41;;;;;;;;;;;;;;;10.62;94.90;101711.38;4877753;29;19938;-52
2021/10/25 10:49:17;;;;;;;;;;;;;;;10.68;93.97;101712.00;4881777;29;20368;-52
2021/10/25 10:51:44;;;;;;;;;;;;;;;10.67;94.96;101719.03;4881140;29;19928;-55
2021/10/25 10:54:21;;;;;;;;;;;;;;;10.72;93.86;101721.44;4880929;29;20410;-55
2021/10/25 10:57:05;;;;;;;;;;;;;;;10.87;94.09;101712.75;4880656;29;20400;-55
2021/10/25 11:01:59;;;;;;;;;;;;;;;10.93;94.66;101722.09;4877727;29;19936;-55
2021/10/25 11:04:29;;;;;;;;;;;;;;;10.92;93.97;101713.34;4879535;29;19983;-54
2021/10/25 11:07:00;;;;;;;;;;;;;;;10.97;94.23;101713.94;4881104;29;19956;-54
2021/10/25 11:09:33;;;;;;;;;;;;;;;11.02;93.75;101712.88;4885765;29;19975;-55
2021/10/25 11:12:21;;;;;;;;;;;;;;;11.16;92.36;101716.44;4876944;29;19976;-45
2021/10/25 11:14:48;;;;;;;;;;;;;;;11.14;93.35;101705.16;4877399;29;19931;-47
2021/10/25 11:17:25;;;;;;;;;;;;;;;11.18;92.73;101707.59;4870730;29;19932;-49
2021/10/25 11:19:52;;;;;;;;;;;;;;;11.18;93.45;101718.16;4881779;29;20272;-47
2021/10/25 11:22:26;;;;;;;;;;;;;;;11.27;92.44;101710.59;4878994;29;19927;-46
2021/10/25 11:24:54;;;;;;;;;;;;;;;11.24;91.15;101708.13;4875410;29;19983;-48
2021/10/25 11:27:23;;;;;;;;;;;;;;;11.21;92.58;101710.94;4879299;29;19987;-46
2021/10/25 11:29:49;;;;;;;;;;;;;;;11.23;91.99;101702.94;4866845;29;19928;-43
2021/10/25 11:32:16;;;;;;;;;;;;;;;11.28;91.86;101706.19;4870245;29;19932;-46
2021/10/25 11:34:47;;;;;;;;;;;;;;;11.40;91.58;101702.88;4878675;29;19935;-44
2021/10/25 11:37:19;;;;;;;;;;;;;;;11.29;91.51;101697.38;4882745;29;19950;-48
2021/10/25 11:39:50;;;;;;;;;;;;;;;11.36;91.99;101700.47;4877311;29;19955;-43
2021/10/25 11:42:18;;;;;;;;;;;;;;;11.38;92.11;101703.91;4873458;29;20345;-45
2021/10/25 11:44:45;;;;;;;;;;;;;;;11.44;91.75;101700.94;4881199;29;20355;-44
2021/10/25 11:47:15;;;;;;;;;;;;;;;11.46;92.39;101693.78;4880478;29;19927;-48
2021/10/25 11:49:43;;;;;;;;;;;;;;;11.58;91.96;101692.28;4879652;29;19984;-47
2021/10/25 11:52:10;;;;;;;;;;;;;;;11.69;91.05;101689.03;4877333;29;19928;-45
2021/10/25 11:54:43;;;;;;;;;;;;;;;11.63;90.59;101680.53;4873620;29;20403;-44
2021/10/25 11:57:10;;;;;;;;;;;;;;;11.87;90.06;101687.13;4877363;29;19928;-47
2021/10/25 11:59:36;;;;;;;;;;;;;;;11.78;90.60;101683.22;4878327;29;19976;-47
2021/10/25 12:02:08;;;;;;;;;;;;;;;11.83;91.13;101681.19;4876470;29;20421;-47
2021/10/25 12:04:40;;;;;;;;;;;;;;;11.83;90.32;101686.44;4883893;29;19932;-49
2021/10/25 12:07:07;;;;;;;;;;;;;;;11.88;90.10;101689.69;4880020;29;20432;-46
2021/10/25 12:09:34;;;;;;;;;;;;;;;11.83;89.44;101674.13;4888653;29;19983;-44
2021/10/25 12:12:07;;;;;;;;;;;;;;;11.90;89.48;101681.69;4881022;29;20366;-46
2021/10/25 12:14:36;;;;;;;;;;;;;;;12.08;90.05;101671.88;4878940;29;19932;-45
2021/10/25 12:17:03;;;;;;;;;;;;;;;12.21;89.98;101672.03;4875296;29;19959;-47
2021/10/25 12:19:30;;;;;;;;;;;;;;;12.29;89.05;101661.88;4862051;29;19928;-44
2021/10/25 12:22:06;;;;;;;;;;;;;;;12.84;86.86;101663.81;4862037;29;20394;-54
2021/10/25 12:24:37;;;;;;;;;;;;;;;12.99;86.30;101651.44;4878952;29;20022;-55
2021/10/25 12:27:05;;;;;;;;;;;;;;;13.02;86.00;101653.88;4879368;29;19928;-54
2021/10/25 12:29:31;;;;;;;;;;;;;;;12.93;85.40;101637.78;4880165;29;19971;-55
2021/10/25 12:32:06;;;;;;;;;;;;;;;12.97;84.88;101637.47;4877166;29;19932;-54
2021/10/25 12:34:33;;;;;;;;;;;;;;;13.46;83.13;101643.28;4861801;29;19927;-55
2021/10/25 12:37:00;;;;;;;;;;;;;;;13.87;82.96;101650.28;4880185;29;19961;-56
2021/10/25 12:39:27;;;;;;;;;;;;;;;13.78;81.42;101645.59;4880209;29;19984;-54
2021/10/25 12:41:57;;;;;;;;;;;;;;;14.03;81.78;101653.59;4894594;29;19927;-55
2021/10/25 12:44:27;;;;;;;;;;;;;;;13.97;80.17;101646.06;4880453;29;19928;-46
2021/10/25 12:47:23;;;;;;;;;;;;;;;14.10;81.17;101642.63;4879859;29;19935;-45
2021/10/25 12:49:53;;;;;;;;;;;;;;;14.19;80.20;101634.03;4869810;29;19935;-55
2021/10/25 12:52:20;;;;;;;;;;;;;;;14.26;80.08;101627.41;4879593;29;19934;-55
2021/10/25 12:54:47;;;;;;;;;;;;;;;14.20;79.03;101633.91;4877668;29;20482;-54
2021/10/25 12:57:23;;;;;;;;;;;;;;;14.23;79.80;101632.03;4877259;29;20000;-54
2021/10/25 13:00:06;;;;;;;;;;;;;;;14.14;79.00;101646.75;4890563;29;20372;-55
2021/10/25 13:02:37;;;;;;;;;;;;;;;13.90;80.34;101642.13;4879199;29;19928;-50
2021/10/25 13:05:08;;;;;;;;;;;;;;;14.16;80.19;101629.78;4877759;29;20463;-44
2021/10/25 13:07:35;;;;;;;;;;;;;;;14.10;79.88;101635.50;4877450;29;19931;-44
2021/10/25 13:10:03;;;;;;;;;;;;;;;14.23;79.93;101632.03;4876781;29;19978;-44
2021/10/25 13:12:30;;;;;;;;;;;;;;;14.13;80.35;101637.09;4877586;29;19934;-56
2021/10/25 13:14:57;;;;;;;;;;;;;;;13.86;81.14;101640.66;4860638;29;19980;-53
2021/10/25 13:17:37;;;;;;;;;;;;;;;13.95;81.31;101641.84;4876964;29;19931;-45
2021/10/25 13:20:05;;;;;;;;;;;;;;;13.94;80.87;101646.25;4879880;29;19956;-47
2021/10/25 13:22:32;;;;;;;;;;;;;;;14.01;81.07;101641.41;4880322;29;19932;-54
2021/10/25 13:24:59;;;;;;;;;;;;;;;13.89;80.97;101639.59;4879841;29;20383;-54
2021/10/25 13:27:25;;;;;;;;;;;;;;;14.02;81.17;101632.53;4863062;29;19928;-54
2021/10/25 13:29:52;;;;;;;;;;;;;;;13.71;82.06;101631.09;4879093;29;19928;-54
2021/10/25 13:32:21;;;;;;;;;;;;;;;13.78;82.02;101622.63;4875970;29;19928;-54
2021/10/25 13:34:48;;;;;;;;;;;;;;;13.78;80.70;101632.38;4876526;29;19932;-55
2021/10/25 13:37:15;;;;;;;;;;;;;;;13.82;80.94;101629.41;4876149;29;19927;-44
2021/10/25 13:39:42;;;;;;;;;;;;;;;14.00;80.00;101631.78;4891701;29;20269;-46
2021/10/25 13:42:09;;;;;;;;;;;;;;;14.03;80.32;101636.88;4878567;29;20310;-54
2021/10/25 13:44:35;;;;;;;;;;;;;;;13.95;81.18;101640.03;4862111;29;19935;-55
2021/10/25 13:47:02;;;;;;;;;;;;;;;13.91;80.67;101629.78;4878731;29;19931;-43
2021/10/25 13:49:29;;;;;;;;;;;;;;;13.91;79.78;101633.25;4861284;29;20396;-48
2021/10/25 13:51:55;;;;;;;;;;;;;;;13.97;80.77;101624.06;4875111;29;19938;-44
2021/10/25 13:54:22;;;;;;;;;;;;;;;14.04;80.85;101620.03;4877320;29;20059;-55
2021/10/25 13:56:49;;;;;;;;;;;;;;;14.02;81.50;101625.44;4878684;29;19932;-47
2021/10/25 13:59:16;;;;;;;;;;;;;;;14.00;81.53;101619.44;4875278;29;20060;-54
2021/10/25 14:01:42;;;;;;;;;;;;;;;13.90;80.76;101615.69;4874054;29;19980;-54
2021/10/25 14:04:14;;;;;;;;;;;;;;;14.00;81.01;101613.28;4874938;29;20384;-45
2021/10/25 14:06:41;;;;;;;;;;;;;;;14.06;81.22;101614.66;4890932;29;19928;-43
2021/10/25 14:09:07;;;;;;;;;;;;;;;14.01;81.26;101607.03;4878321;29;19956;-46
2021/10/25 14:11:46;;;;;;;;;;;;;;;14.01;81.43;101605.22;4892126;29;19976;-48
2021/10/25 14:16:49;;;;;;;;;;;;;;;13.92;80.77;101605.00;4876075;29;19928;-56
2021/10/25 14:19:16;;;;;;;;;;;;;;;13.85;81.59;101607.22;4876852;29;20296;-56
2021/10/25 14:21:43;;;;;;;;;;;;;;;13.92;81.64;101623.53;4876455;29;19959;-56